Time;durP1;ratioP1;P1;durP2;ratioP2;P2;SDS_P1;SDS_P2;PMS_P1;PMS_P2;Temp;Humidity;BMP_temperature;BMP_pressure;BME280_temperature;BME280_humidity;BME280_pressure;Samples;Min_cycle;Max_cycle;Signal;HPM_P1;HPM_P2
2023/12/10 00:02:18;;;;;;;4.05;2.40;;;21.30;50.70;;;;;;4976512;28;20541;-64
2023/12/10 00:04:44;;;;;;;2.80;2.40;;;21.20;51.00;;;;;;4979311;28;20026;-66
2023/12/10 00:07:10;;;;;;;3.10;2.50;;;21.10;51.10;;;;;;4979716;28;20065;-65
2023/12/10 00:09:36;;;;;;;3.47;2.40;;;21.00;51.40;;;;;;4979000;28;20508;-67
2023/12/10 00:12:01;;;;;;;3.45;2.70;;;20.90;51.60;;;;;;4974861;28;20030;-66
2023/12/10 00:14:27;;;;;;;3.10;2.60;;;20.70;51.70;;;;;;4987620;28;20035;-67
2023/12/10 00:16:53;;;;;;;3.35;2.47;;;20.60;51.90;;;;;;4982814;28;20054;-65
2023/12/10 00:19:18;;;;;;;3.60;2.60;;;20.60;52.20;;;;;;4978387;28;20026;-66
2023/12/10 00:21:44;;;;;;;3.03;2.13;;;20.50;52.30;;;;;;4983283;28;20488;-66
2023/12/10 00:24:09;;;;;;;3.38;2.47;;;20.40;52.50;;;;;;4977848;28;20030;-66
2023/12/10 00:26:35;;;;;;;3.50;2.58;;;20.30;52.70;;;;;;4983768;28;20029;-68
2023/12/10 00:29:00;;;;;;;4.03;2.40;;;20.20;52.80;;;;;;4976490;28;20598;-67
2023/12/10 00:31:26;;;;;;;4.03;3.13;;;20.10;52.90;;;;;;4976379;28;20121;-66
2023/12/10 00:33:52;;;;;;;2.63;2.20;;;20.10;53.10;;;;;;4978771;28;20711;-66
2023/12/10 00:36:18;;;;;;;3.72;2.40;;;20.00;53.20;;;;;;4982904;28;20038;-67
2023/12/10 00:38:45;;;;;;;3.80;2.30;;;19.90;53.30;;;;;;4976160;28;20034;-65
2023/12/10 00:41:11;;;;;;;3.72;2.63;;;19.90;53.50;;;;;;4978269;28;20038;-66
2023/12/10 00:43:40;;;;;;;3.00;2.17;;;19.80;53.50;;;;;;4982730;28;20031;-66
2023/12/10 00:46:06;;;;;;;4.90;2.50;;;19.70;53.70;;;;;;4975676;28;20121;-67
2023/12/10 00:48:32;;;;;;;3.47;2.13;;;19.70;53.80;;;;;;4980635;28;20213;-66
2023/12/10 00:50:57;;;;;;;5.80;2.88;;;19.60;54.00;;;;;;4977861;28;20030;-65
2023/12/10 00:53:23;;;;;;;6.45;2.67;;;19.50;54.00;;;;;;4979730;28;20046;-66
2023/12/10 00:55:49;;;;;;;3.25;2.38;;;19.50;54.20;;;;;;4978916;28;20062;-67
2023/12/10 00:58:14;;;;;;;2.92;1.95;;;19.40;54.20;;;;;;4972545;28;20031;-65
2023/12/10 01:00:40;;;;;;;3.15;2.30;;;19.40;54.40;;;;;;4982088;28;20556;-65
2023/12/10 01:03:06;;;;;;;3.17;2.40;;;19.30;54.50;;;;;;4978755;28;20037;-66
2023/12/10 01:05:32;;;;;;;2.58;1.92;;;19.30;54.70;;;;;;4979854;28;20109;-65
2023/12/10 01:07:57;;;;;;;3.17;2.13;;;19.20;54.60;;;;;;4982334;28;20034;-66
2023/12/10 01:10:23;;;;;;;3.85;2.63;;;19.20;54.80;;;;;;4984209;28;20496;-65
2023/12/10 01:12:48;;;;;;;3.08;2.35;;;19.20;54.70;;;;;;4980260;28;20797;-67
2023/12/10 01:15:14;;;;;;;4.13;2.03;;;19.10;54.80;;;;;;4972625;28;20041;-65
2023/12/10 01:17:39;;;;;;;2.20;1.75;;;19.10;54.80;;;;;;4978518;28;20034;-65
2023/12/10 01:20:05;;;;;;;2.63;1.90;;;19.10;54.90;;;;;;4983260;28;20046;-66
2023/12/10 01:22:31;;;;;;;2.50;1.90;;;19.00;54.90;;;;;;4982192;28;20033;-65
2023/12/10 01:24:57;;;;;;;3.78;2.53;;;19.00;54.90;;;;;;4977857;28;20034;-66
2023/12/10 01:27:23;;;;;;;2.55;1.73;;;19.00;54.90;;;;;;4979305;28;20038;-63
2023/12/10 01:29:48;;;;;;;2.53;2.05;;;18.90;54.90;;;;;;4983336;28;20101;-66
2023/12/10 01:32:14;;;;;;;2.22;1.90;;;18.90;55.10;;;;;;4983010;28;20034;-66
2023/12/10 01:34:41;;;;;;;3.28;1.83;;;18.90;55.00;;;;;;4978916;28;20040;-65
2023/12/10 01:37:07;;;;;;;3.38;2.13;;;18.90;55.20;;;;;;4983764;28;20041;-66
2023/12/10 01:39:33;;;;;;;4.60;2.75;;;18.80;55.10;;;;;;4986979;28;20038;-65
2023/12/10 01:41:58;;;;;;;3.53;2.13;;;18.80;55.20;;;;;;4982874;28;20041;-65
2023/12/10 01:44:24;;;;;;;4.22;1.92;;;18.70;55.20;;;;;;4987276;28;20042;-65
2023/12/10 01:46:50;;;;;;;2.10;1.90;;;18.70;55.20;;;;;;4983614;28;20118;-66
2023/12/10 01:49:16;;;;;;;3.67;1.95;;;18.70;55.30;;;;;;4976750;28;20030;-66
2023/12/10 01:51:43;;;;;;;3.10;1.88;;;18.70;55.40;;;;;;4979225;28;20143;-65
2023/12/10 01:54:21;;;;;;;2.58;1.77;;;18.70;55.40;;;;;;4982887;28;20030;-66
2023/12/10 01:56:49;;;;;;;2.95;1.38;;;18.60;55.40;;;;;;4983288;28;20109;-64
2023/12/10 01:59:14;;;;;;;2.75;1.70;;;18.60;55.50;;;;;;4983474;28;20043;-65
2023/12/10 02:01:40;;;;;;;1.85;1.40;;;18.60;55.50;;;;;;4981627;28;20113;-65
2023/12/10 02:04:06;;;;;;;2.08;1.70;;;18.60;55.60;;;;;;4981567;28;20042;-65
2023/12/10 02:06:32;;;;;;;2.25;2.05;;;18.50;55.60;;;;;;4985950;28;20038;-65
2023/12/10 02:08:58;;;;;;;2.60;1.80;;;18.50;55.70;;;;;;4977773;28;20026;-64
2023/12/10 02:11:23;;;;;;;2.70;1.92;;;18.50;55.70;;;;;;4982986;28;20036;-64
2023/12/10 02:13:49;;;;;;;2.65;1.50;;;18.50;55.80;;;;;;4978901;28;20595;-66
2023/12/10 02:16:15;;;;;;;1.92;1.52;;;18.40;55.80;;;;;;4984948;28;20047;-64
2023/12/10 02:18:40;;;;;;;1.90;1.50;;;18.40;55.90;;;;;;4969437;28;20026;-64
2023/12/10 02:21:07;;;;;;;1.95;1.55;;;18.40;55.90;;;;;;4985278;28;20065;-67
2023/12/10 02:23:51;;;;;;;1.77;1.35;;;18.40;55.90;;;;;;4979306;28;20125;-64
2023/12/10 02:26:16;;;;;;;2.25;1.30;;;18.30;56.00;;;;;;4980979;28;20054;-65
2023/12/10 02:28:42;;;;;;;3.20;2.10;;;18.30;56.00;;;;;;4988241;28;20057;-66
2023/12/10 02:31:08;;;;;;;2.20;1.65;;;18.30;56.10;;;;;;4987961;28;20038;-65
2023/12/10 02:33:33;;;;;;;2.33;1.60;;;18.30;56.10;;;;;;4985801;28;20112;-65
2023/12/10 02:35:59;;;;;;;2.80;1.70;;;18.30;56.20;;;;;;4988726;28;20091;-64
2023/12/10 02:38:24;;;;;;;2.08;1.50;;;18.30;56.10;;;;;;4965598;28;20397;-65
2023/12/10 02:40:50;;;;;;;1.90;1.45;;;18.30;56.20;;;;;;4988912;28;20058;-67
2023/12/10 02:43:17;;;;;;;1.60;1.30;;;18.30;56.00;;;;;;4990127;28;20022;-64
2023/12/10 02:45:43;;;;;;;2.33;1.38;;;18.20;56.20;;;;;;4986767;28;20027;-64
2023/12/10 02:48:08;;;;;;;2.22;1.50;;;18.20;56.20;;;;;;4988619;28;20033;-65
2023/12/10 02:50:34;;;;;;;1.88;1.30;;;18.20;56.10;;;;;;4986775;28;20030;-64
2023/12/10 02:52:59;;;;;;;1.60;1.02;;;18.20;56.10;;;;;;4989178;28;20084;-65
2023/12/10 02:55:25;;;;;;;2.13;1.30;;;18.20;56.20;;;;;;4986828;28;20485;-64
2023/12/10 02:57:50;;;;;;;1.58;1.35;;;18.20;56.00;;;;;;4988013;28;20030;-66
2023/12/10 03:00:16;;;;;;;3.40;1.67;;;18.40;55.70;;;;;;4988615;28;20018;-65
2023/12/10 03:02:42;;;;;;;4.20;1.73;;;18.70;55.20;;;;;;4987291;28;20081;-65
2023/12/10 03:05:08;;;;;;;2.70;1.45;;;18.90;54.60;;;;;;4980050;28;20041;-65
2023/12/10 03:07:33;;;;;;;2.20;1.52;;;19.00;54.20;;;;;;4984677;28;20027;-65
2023/12/10 03:09:59;;;;;;;2.55;1.30;;;19.10;54.00;;;;;;4983888;28;20035;-66
2023/12/10 03:12:25;;;;;;;1.65;1.10;;;19.10;53.90;;;;;;4989257;28;20080;-66
2023/12/10 03:14:50;;;;;;;1.88;1.45;;;19.20;53.90;;;;;;4987021;28;20034;-64
2023/12/10 03:17:16;;;;;;;2.03;1.40;;;19.10;53.90;;;;;;4969672;28;20022;-66
2023/12/10 03:19:41;;;;;;;2.75;1.30;;;19.10;53.90;;;;;;4984455;28;20026;-66
2023/12/10 03:22:07;;;;;;;2.25;1.40;;;19.10;54.00;;;;;;4984613;28;20054;-65
2023/12/10 03:24:32;;;;;;;1.95;1.20;;;19.10;54.00;;;;;;4985731;28;20265;-65
2023/12/10 03:26:58;;;;;;;2.42;1.05;;;19.00;54.10;;;;;;4968927;28;20058;-66
2023/12/10 03:29:23;;;;;;;1.60;1.20;;;19.00;54.10;;;;;;4985216;28;20030;-66
2023/12/10 03:31:49;;;;;;;1.70;1.60;;;19.10;54.00;;;;;;4984197;28;20034;-65
2023/12/10 03:34:14;;;;;;;1.65;1.10;;;19.30;53.80;;;;;;4986053;28;20045;-66
2023/12/10 03:36:40;;;;;;;2.47;1.10;;;19.50;53.40;;;;;;4960301;28;20521;-66
2023/12/10 03:39:05;;;;;;;1.95;1.38;;;19.70;53.10;;;;;;4984787;28;20026;-65
2023/12/10 03:41:31;;;;;;;2.30;1.00;;;19.90;52.80;;;;;;4983696;28;20030;-65
2023/12/10 03:43:56;;;;;;;1.83;1.10;;;20.00;52.50;;;;;;4971497;28;20107;-66
2023/12/10 03:46:22;;;;;;;2.08;1.00;;;20.10;52.30;;;;;;4987727;28;20181;-66
2023/12/10 03:48:47;;;;;;;2.63;1.73;;;20.20;52.10;;;;;;4985104;28;20034;-66
2023/12/10 03:51:13;;;;;;;1.52;0.95;;;20.30;51.90;;;;;;4987890;28;20481;-65
2023/12/10 03:53:38;;;;;;;1.35;0.90;;;20.40;51.90;;;;;;4989234;28;20027;-66
2023/12/10 03:56:04;;;;;;;1.23;0.90;;;20.40;51.90;;;;;;4987893;28;20080;-66
2023/12/10 03:58:30;;;;;;;1.30;1.10;;;20.40;51.90;;;;;;4986201;28;20553;-65
2023/12/10 04:00:55;;;;;;;1.50;1.00;;;20.40;51.90;;;;;;4983375;28;20054;-66
2023/12/10 04:03:21;;;;;;;0.88;0.82;;;20.40;51.90;;;;;;4985741;28;20042;-65
2023/12/10 04:05:46;;;;;;;1.08;0.70;;;20.30;51.90;;;;;;4984220;28;20045;-65
2023/12/10 04:08:12;;;;;;;1.25;1.02;;;20.30;52.10;;;;;;4987815;28;20115;-65
2023/12/10 04:10:37;;;;;;;1.63;0.93;;;20.20;52.20;;;;;;4985658;28;20019;-66
2023/12/10 04:13:03;;;;;;;2.17;1.00;;;20.20;52.30;;;;;;4981174;28;20043;-66
2023/12/10 04:15:28;;;;;;;1.55;0.90;;;20.10;52.50;;;;;;4984691;28;20031;-67
2023/12/10 04:17:54;;;;;;;1.20;1.10;;;20.10;52.60;;;;;;4965340;28;20394;-65
2023/12/10 04:20:19;;;;;;;2.45;0.80;;;20.00;52.80;;;;;;4979890;28;20054;-66
2023/12/10 04:22:45;;;;;;;1.00;0.90;;;19.90;52.90;;;;;;4986094;28;20030;-66
2023/12/10 04:25:10;;;;;;;1.40;1.05;;;19.90;53.00;;;;;;4978794;28;20026;-65
2023/12/10 04:27:36;;;;;;;1.73;0.80;;;19.80;53.10;;;;;;4982005;28;20429;-65
2023/12/10 04:30:01;;;;;;;0.93;0.82;;;19.80;53.30;;;;;;4986234;28;20034;-65
2023/12/10 04:32:27;;;;;;;1.70;1.02;;;19.70;53.30;;;;;;4983211;28;20035;-66
2023/12/10 04:34:52;;;;;;;1.75;1.08;;;19.60;53.40;;;;;;4982090;28;20037;-61
2023/12/10 04:37:18;;;;;;;1.77;0.95;;;19.60;53.60;;;;;;4952525;28;20034;-66
2023/12/10 04:39:45;;;;;;;1.20;0.90;;;19.50;53.70;;;;;;4978753;28;20026;-66
2023/12/10 04:42:10;;;;;;;2.25;0.88;;;19.40;53.80;;;;;;4982254;28;20086;-65
2023/12/10 04:44:36;;;;;;;0.93;0.80;;;19.40;53.90;;;;;;4985708;28;20034;-66
2023/12/10 04:47:01;;;;;;;1.50;0.88;;;19.30;54.00;;;;;;4982171;28;20030;-66
2023/12/10 04:49:27;;;;;;;1.98;0.90;;;19.30;54.10;;;;;;4980355;28;20599;-64
2023/12/10 04:51:52;;;;;;;0.95;0.80;;;19.20;54.20;;;;;;4954889;28;20036;-65
2023/12/10 04:54:17;;;;;;;1.20;0.73;;;19.20;54.40;;;;;;4985404;28;20034;-65
2023/12/10 04:56:43;;;;;;;0.93;0.85;;;19.10;54.50;;;;;;4984028;28;20133;-65
2023/12/10 04:59:08;;;;;;;1.23;0.75;;;19.10;54.60;;;;;;4976410;28;20062;-65
2023/12/10 05:01:34;;;;;;;0.75;0.52;;;19.00;54.70;;;;;;4969527;28;20041;-65
2023/12/10 05:03:59;;;;;;;1.92;0.82;;;19.00;54.70;;;;;;4987029;28;20157;-65
2023/12/10 05:06:25;;;;;;;1.15;0.77;;;18.90;54.80;;;;;;4984785;28;20572;-65
2023/12/10 05:08:50;;;;;;;1.33;0.90;;;18.90;54.90;;;;;;4989913;28;20034;-65
2023/12/10 05:11:16;;;;;;;2.30;0.70;;;18.90;55.00;;;;;;4996032;28;20045;-66
2023/12/10 05:13:41;;;;;;;1.00;0.70;;;18.80;54.90;;;;;;4990015;28;20521;-66
2023/12/10 05:16:07;;;;;;;1.52;0.80;;;18.80;55.10;;;;;;4994587;28;20022;-65
2023/12/10 05:18:33;;;;;;;1.52;0.77;;;18.80;55.70;;;;;;4986937;28;20057;-66
2023/12/10 05:20:58;;;;;;;1.50;0.98;;;18.70;55.00;;;;;;4993735;28;20057;-65
2023/12/10 05:23:24;;;;;;;1.40;0.60;;;18.70;55.00;;;;;;4988869;28;20031;-65
2023/12/10 05:25:50;;;;;;;1.38;1.00;;;18.70;55.10;;;;;;4998019;28;20027;-65
2023/12/10 05:28:15;;;;;;;1.17;0.70;;;18.70;55.10;;;;;;4991869;28;20030;-66
2023/12/10 05:30:41;;;;;;;1.63;1.00;;;18.70;55.10;;;;;;4993049;28;20023;-65
2023/12/10 05:33:06;;;;;;;0.85;0.70;;;18.60;55.10;;;;;;4981541;28;20034;-65
2023/12/10 05:35:32;;;;;;;1.02;0.70;;;18.60;55.20;;;;;;4982768;28;20145;-66
2023/12/10 05:37:58;;;;;;;0.93;0.63;;;18.60;55.20;;;;;;4990731;28;20037;-65
2023/12/10 05:40:25;;;;;;;1.48;0.80;;;18.50;55.20;;;;;;4994399;28;20097;-65
2023/12/10 05:42:51;;;;;;;0.88;0.50;;;18.60;55.30;;;;;;4990345;28;20131;-65
2023/12/10 05:45:17;;;;;;;1.20;0.65;;;18.50;55.30;;;;;;4983151;28;20023;-65
2023/12/10 05:47:42;;;;;;;1.30;0.80;;;18.50;55.30;;;;;;5001040;28;20105;-66
2023/12/10 05:50:08;;;;;;;1.10;0.80;;;18.50;55.40;;;;;;4996383;28;20030;-66
2023/12/10 05:52:34;;;;;;;0.73;0.55;;;18.50;55.40;;;;;;4996121;28;20353;-65
2023/12/10 05:55:00;;;;;;;0.82;0.65;;;18.40;55.40;;;;;;5002932;28;20401;-64
2023/12/10 05:57:25;;;;;;;0.75;0.60;;;18.40;55.40;;;;;;4999636;28;20030;-65
2023/12/10 05:59:51;;;;;;;1.02;0.55;;;18.40;55.50;;;;;;4999525;28;20568;-65
2023/12/10 06:02:16;;;;;;;1.75;0.70;;;18.40;55.50;;;;;;4997504;28;20092;-65
2023/12/10 06:04:41;;;;;;;1.75;0.70;;;18.30;55.50;;;;;;4989967;28;20042;-65
2023/12/10 06:07:07;;;;;;;1.38;0.93;;;18.40;55.50;;;;;;4988674;28;20030;-65
2023/12/10 06:09:33;;;;;;;0.80;0.77;;;18.30;55.50;;;;;;4992650;28;20501;-60
2023/12/10 06:11:58;;;;;;;1.30;0.60;;;18.30;55.50;;;;;;4987046;28;20049;-65
2023/12/10 06:14:24;;;;;;;1.85;0.82;;;18.30;55.60;;;;;;4989100;28;20068;-65
2023/12/10 06:16:49;;;;;;;1.85;0.65;;;18.30;55.70;;;;;;4985724;28;20041;-65
2023/12/10 06:19:15;;;;;;;1.58;0.50;;;18.30;55.70;;;;;;4986278;28;20045;-65
2023/12/10 06:21:40;;;;;;;1.20;0.70;;;18.30;55.70;;;;;;4985765;28;20520;-66
2023/12/10 06:24:06;;;;;;;0.93;0.70;;;18.30;55.70;;;;;;4985835;28;20027;-65
2023/12/10 06:26:31;;;;;;;1.75;0.68;;;18.30;55.70;;;;;;4989290;28;20037;-66
2023/12/10 06:28:57;;;;;;;0.90;0.40;;;18.30;55.50;;;;;;4988297;28;20480;-65
2023/12/10 06:31:22;;;;;;;1.77;0.80;;;18.40;55.30;;;;;;4979132;28;20145;-66
2023/12/10 06:33:48;;;;;;;2.33;0.90;;;18.60;54.90;;;;;;4983726;28;20034;-65
2023/12/10 06:36:13;;;;;;;0.95;0.55;;;18.80;54.50;;;;;;4987645;28;20033;-65
2023/12/10 06:38:39;;;;;;;0.70;0.50;;;19.10;53.90;;;;;;4981979;28;20042;-64
2023/12/10 06:41:06;;;;;;;0.98;0.52;;;19.40;53.40;;;;;;4982264;28;20114;-64
2023/12/10 06:43:31;;;;;;;0.93;0.60;;;19.60;53.10;;;;;;4970434;28;20121;-64
2023/12/10 06:45:58;;;;;;;1.00;0.82;;;19.80;52.70;;;;;;4975314;28;20118;-64
2023/12/10 06:48:24;;;;;;;1.50;0.60;;;20.00;52.30;;;;;;4980460;28;20746;-64
2023/12/10 06:50:49;;;;;;;1.33;0.73;;;20.20;52.00;;;;;;4984937;28;20026;-63
2023/12/10 06:53:15;;;;;;;0.80;0.60;;;20.40;51.70;;;;;;4979774;28;20030;-64
2023/12/10 06:55:40;;;;;;;0.60;0.43;;;20.50;51.50;;;;;;4978733;28;20023;-62
2023/12/10 06:58:06;;;;;;;1.58;0.50;;;20.60;51.30;;;;;;4989855;28;20379;-64
2023/12/10 07:00:31;;;;;;;2.15;0.65;;;20.70;51.20;;;;;;4982966;28;20046;-64
2023/12/10 07:02:57;;;;;;;0.80;0.50;;;20.70;51.10;;;;;;4980237;28;20035;-64
2023/12/10 07:05:23;;;;;;;0.95;0.50;;;20.80;51.10;;;;;;4983947;28;20034;-65
2023/12/10 07:07:48;;;;;;;1.00;0.70;;;20.70;51.20;;;;;;4981855;28;20019;-65
2023/12/10 07:10:14;;;;;;;0.93;0.63;;;20.70;51.30;;;;;;4989946;28;20057;-63
2023/12/10 07:12:39;;;;;;;0.93;0.60;;;20.60;51.40;;;;;;4985774;28;20038;-65
2023/12/10 07:15:05;;;;;;;1.17;0.70;;;20.60;51.60;;;;;;4984283;28;20034;-65
2023/12/10 07:17:31;;;;;;;2.47;0.60;;;20.50;51.70;;;;;;4990067;28;20430;-65
2023/12/10 07:19:56;;;;;;;2.15;1.02;;;20.40;51.90;;;;;;4985085;28;20035;-64
2023/12/10 07:22:22;;;;;;;3.80;1.30;;;20.40;52.10;;;;;;4993757;28;20044;-67
2023/12/10 07:24:47;;;;;;;3.28;2.03;;;20.20;52.20;;;;;;4953072;28;20405;-65
2023/12/10 07:27:13;;;;;;;2.30;1.25;;;20.20;53.10;;;;;;4988448;28;20033;-67
2023/12/10 07:29:38;;;;;;;2.60;1.70;;;20.10;52.60;;;;;;4988071;28;20405;-66
2023/12/10 07:32:04;;;;;;;4.05;1.58;;;20.00;52.70;;;;;;4981801;28;20121;-64
2023/12/10 07:34:29;;;;;;;3.20;1.70;;;20.00;53.00;;;;;;4964104;28;20049;-66
2023/12/10 07:36:55;;;;;;;3.10;1.67;;;19.90;53.00;;;;;;4957792;28;20054;-67
2023/12/10 07:39:20;;;;;;;3.78;1.90;;;19.80;53.10;;;;;;4964450;28;20474;-67
2023/12/10 07:41:46;;;;;;;6.32;2.60;;;19.80;53.30;;;;;;4958188;28;20039;-67
2023/12/10 07:44:11;;;;;;;7.30;2.60;;;19.70;53.40;;;;;;4963874;28;20616;-65
2023/12/10 07:46:37;;;;;;;6.07;2.65;;;19.60;53.50;;;;;;4955459;28;20042;-67
2023/12/10 07:49:02;;;;;;;7.05;2.40;;;19.60;53.60;;;;;;4962232;28;20059;-65
2023/12/10 07:51:28;;;;;;;6.65;2.33;;;19.50;53.70;;;;;;4962274;28;20033;-67
2023/12/10 07:53:53;;;;;;;9.10;3.33;;;19.50;53.80;;;;;;4958500;28;20417;-67
2023/12/10 07:56:18;;;;;;;5.43;2.53;;;19.40;53.90;;;;;;4964580;28;20019;-65
2023/12/10 07:58:44;;;;;;;4.82;2.53;;;19.30;54.00;;;;;;4961176;28;20033;-65
2023/12/10 08:01:09;;;;;;;9.13;3.72;;;19.30;54.10;;;;;;4964849;28;20118;-64
2023/12/10 08:03:35;;;;;;;11.13;3.97;;;19.30;54.20;;;;;;4960963;28;20042;-64
2023/12/10 08:06:01;;;;;;;10.25;5.60;;;19.20;54.40;;;;;;4961798;28;20031;-65
2023/12/10 08:08:27;;;;;;;14.52;6.18;;;19.10;54.40;;;;;;4959196;28;20057;-64
2023/12/10 08:10:52;;;;;;;19.08;8.82;;;19.10;54.60;;;;;;4964409;28;20023;-64
2023/12/10 08:13:18;;;;;;;19.35;9.40;;;19.10;54.80;;;;;;4965772;28;20512;-64
2023/12/10 08:15:43;;;;;;;21.83;11.15;;;19.00;54.90;;;;;;4961359;28;20030;-63
2023/12/10 08:18:09;;;;;;;20.52;10.50;;;19.00;54.90;;;;;;4979665;28;20031;-64
2023/12/10 08:20:34;;;;;;;18.70;9.27;;;19.00;55.00;;;;;;4964771;28;20559;-64
2023/12/10 08:23:00;;;;;;;18.33;10.02;;;18.90;55.00;;;;;;4962982;28;20030;-65
2023/12/10 08:25:26;;;;;;;16.30;8.82;;;18.90;55.00;;;;;;4965348;28;20629;-64
2023/12/10 08:27:51;;;;;;;20.73;9.27;;;18.90;54.90;;;;;;4964920;28;20086;-65
2023/12/10 08:30:17;;;;;;;17.90;8.75;;;18.90;55.00;;;;;;4963181;28;20131;-65
2023/12/10 08:32:42;;;;;;;19.73;8.98;;;18.80;55.00;;;;;;4959494;28;20133;-64
2023/12/10 08:35:08;;;;;;;20.63;10.23;;;18.80;54.90;;;;;;4961825;28;20028;-66
2023/12/10 08:37:33;;;;;;;18.25;9.57;;;18.80;55.00;;;;;;4963764;28;20039;-65
2023/12/10 08:40:03;;;;;;;19.33;10.02;;;18.70;54.90;;;;;;4966026;28;20035;-64
2023/12/10 08:42:30;;;;;;;22.27;10.15;;;18.70;54.90;;;;;;4969192;28;20417;-65
2023/12/10 08:44:56;;;;;;;17.45;9.15;;;18.70;55.00;;;;;;4970009;28;20089;-65
2023/12/10 08:47:21;;;;;;;19.17;9.88;;;18.70;54.90;;;;;;4972085;28;20080;-64
2023/12/10 08:49:47;;;;;;;18.02;9.20;;;18.70;55.00;;;;;;4966677;28;20038;-63
2023/12/10 08:52:12;;;;;;;19.30;9.05;;;18.60;54.90;;;;;;4966847;28;20042;-66
2023/12/10 08:54:38;;;;;;;16.67;8.70;;;18.60;55.00;;;;;;4964676;28;20465;-65
2023/12/10 08:57:03;;;;;;;19.27;9.48;;;18.60;55.10;;;;;;4968119;28;20118;-65
2023/12/10 08:59:29;;;;;;;17.83;8.85;;;18.60;55.00;;;;;;4965487;28;20039;-65
2023/12/10 09:01:54;;;;;;;17.90;8.65;;;18.60;55.00;;;;;;4964612;28;20039;-64
2023/12/10 09:04:20;;;;;;;19.67;8.73;;;18.50;55.10;;;;;;4967962;28;20027;-65
2023/12/10 09:06:45;;;;;;;20.17;9.13;;;18.50;55.10;;;;;;4966989;28;20538;-64
2023/12/10 09:09:11;;;;;;;17.10;8.68;;;18.50;55.20;;;;;;4967099;28;20027;-65
2023/12/10 09:11:36;;;;;;;17.88;8.27;;;18.40;55.10;;;;;;4967625;28;20097;-65
2023/12/10 09:14:02;;;;;;;17.58;8.45;;;18.50;55.30;;;;;;4970952;28;20114;-64
2023/12/10 09:16:27;;;;;;;13.32;8.27;;;18.50;55.30;;;;;;4972082;28;20034;-65
2023/12/10 09:18:53;;;;;;;14.73;8.68;;;18.40;55.30;;;;;;4968601;28;20110;-65
2023/12/10 09:21:18;;;;;;;19.67;7.80;;;18.40;55.30;;;;;;4967437;28;20031;-64
2023/12/10 09:23:44;;;;;;;16.55;7.90;;;18.40;55.30;;;;;;4967836;28;20429;-65
2023/12/10 09:26:10;;;;;;;13.95;7.43;;;18.40;55.40;;;;;;4965584;28;20030;-65
2023/12/10 09:28:36;;;;;;;13.20;7.82;;;18.30;55.40;;;;;;4993244;28;20034;-64
2023/12/10 09:31:01;;;;;;;13.88;7.50;;;18.30;55.50;;;;;;4987467;28;20069;-65
2023/12/10 09:33:27;;;;;;;13.52;7.20;;;18.30;55.50;;;;;;4978984;28;20058;-64
2023/12/10 09:35:52;;;;;;;15.85;7.72;;;18.30;55.60;;;;;;4962189;28;20062;-65
2023/12/10 09:38:18;;;;;;;16.33;7.10;;;18.20;55.70;;;;;;4963287;28;20043;-65
2023/12/10 09:40:43;;;;;;;16.00;7.25;;;18.20;55.60;;;;;;4967068;28;20027;-65
2023/12/10 09:43:09;;;;;;;13.50;7.15;;;18.20;55.70;;;;;;4967231;28;20045;-65
2023/12/10 09:45:34;;;;;;;10.70;6.32;;;18.20;55.80;;;;;;4966375;28;20054;-66
2023/12/10 09:48:01;;;;;;;12.35;6.55;;;18.20;55.80;;;;;;4963656;28;20407;-65
2023/12/10 09:50:27;;;;;;;11.77;6.30;;;18.20;55.70;;;;;;4968324;28;20023;-65
2023/12/10 09:52:54;;;;;;;13.38;6.63;;;18.20;55.90;;;;;;4967269;28;20019;-65
2023/12/10 09:55:19;;;;;;;11.88;6.00;;;18.10;55.80;;;;;;4964302;28;20105;-65
2023/12/10 09:57:45;;;;;;;11.27;6.55;;;18.10;55.70;;;;;;4965789;28;20062;-65
2023/12/10 10:00:11;;;;;;;10.38;5.38;;;18.10;55.70;;;;;;4967521;28;20121;-65
2023/12/10 10:02:37;;;;;;;11.73;5.88;;;18.20;55.50;;;;;;4965954;28;20038;-65
2023/12/10 10:05:05;;;;;;;11.63;5.65;;;18.50;55.20;;;;;;4962781;28;20046;-65
2023/12/10 10:07:32;;;;;;;13.93;6.10;;;18.70;54.60;;;;;;4959582;28;20248;-66
2023/12/10 10:09:58;;;;;;;11.02;5.55;;;19.10;53.80;;;;;;4964651;28;20050;-65
2023/12/10 10:12:30;;;;;;;11.65;5.35;;;19.60;53.10;;;;;;4966361;28;20035;-65
2023/12/10 10:14:57;;;;;;;10.55;5.18;;;20.00;52.40;;;;;;4963998;28;20039;-65
2023/12/10 10:17:30;;;;;;;10.30;5.10;;;20.30;51.70;;;;;;4962545;28;20052;-67
2023/12/10 10:19:56;;;;;;;8.88;4.57;;;20.50;51.20;;;;;;4964836;28;20193;-64
2023/12/10 10:22:26;;;;;;;8.95;5.18;;;20.70;50.90;;;;;;4982222;28;20128;-65
2023/12/10 10:24:52;;;;;;;10.50;5.68;;;21.00;50.40;;;;;;4982905;28;20042;-66
2023/12/10 10:27:18;;;;;;;8.98;4.63;;;21.20;50.10;;;;;;4985427;28;20038;-66
2023/12/10 10:29:44;;;;;;;7.70;4.47;;;21.40;49.90;;;;;;4985445;28;20034;-67
2023/12/10 10:32:15;;;;;;;8.60;4.55;;;21.50;49.80;;;;;;4984457;28;20532;-66
2023/12/10 10:34:42;;;;;;;8.60;4.20;;;21.50;49.80;;;;;;4972634;28;20156;-65
2023/12/10 10:37:08;;;;;;;9.02;4.38;;;21.50;49.90;;;;;;4961976;28;20038;-67
2023/12/10 10:39:34;;;;;;;6.75;4.30;;;21.40;50.00;;;;;;4976737;28;20037;-67
2023/12/10 10:42:04;;;;;;;8.93;4.78;;;21.40;50.20;;;;;;4973096;28;20034;-66
2023/12/10 10:44:33;;;;;;;9.30;4.32;;;21.30;50.30;;;;;;4995187;28;20030;-67
2023/12/10 10:47:00;;;;;;;8.70;5.05;;;21.20;50.50;;;;;;4988109;28;20046;-66
2023/12/10 10:49:27;;;;;;;7.78;3.80;;;21.10;50.80;;;;;;4995231;28;20033;-65
2023/12/10 10:51:53;;;;;;;8.15;3.67;;;21.00;51.00;;;;;;4984191;28;20133;-67
2023/12/10 10:54:19;;;;;;;7.57;4.53;;;20.90;51.20;;;;;;4993070;28;20026;-66
2023/12/10 10:56:45;;;;;;;9.18;3.80;;;20.80;51.40;;;;;;4989493;28;20026;-67
2023/12/10 10:59:30;;;;;;;6.47;3.72;;;20.70;51.50;;;;;;4987001;28;20034;-66
2023/12/10 11:02:05;;;;;;;5.80;3.50;;;20.60;51.80;;;;;;4990077;28;20050;-65
2023/12/10 11:04:37;;;;;;;7.88;3.88;;;20.50;51.90;;;;;;4992583;28;20054;-66
2023/12/10 11:07:04;;;;;;;7.95;4.07;;;20.40;52.10;;;;;;4990449;28;20401;-66
2023/12/10 11:09:32;;;;;;;7.90;4.57;;;20.30;52.30;;;;;;4994236;28;20504;-67
2023/12/10 11:11:59;;;;;;;7.15;4.03;;;20.30;52.50;;;;;;4991271;28;20045;-65
2023/12/10 11:14:25;;;;;;;6.63;3.55;;;20.20;52.60;;;;;;4996325;28;20037;-67
2023/12/10 11:16:58;;;;;;;5.68;3.50;;;20.10;52.70;;;;;;4988158;28;20060;-68
2023/12/10 11:19:24;;;;;;;5.80;3.38;;;20.10;52.90;;;;;;4995033;28;20034;-65
2023/12/10 11:21:50;;;;;;;6.03;3.67;;;20.00;53.00;;;;;;4995032;28;20030;-65
2023/12/10 11:24:16;;;;;;;7.43;3.72;;;19.90;53.10;;;;;;4993602;28;20026;-65
2023/12/10 11:26:42;;;;;;;6.22;3.20;;;19.80;53.20;;;;;;4993492;28;20034;-65
2023/12/10 11:29:07;;;;;;;6.10;2.90;;;19.80;53.40;;;;;;4993919;28;20057;-66
2023/12/10 11:31:34;;;;;;;5.13;2.85;;;19.70;53.50;;;;;;4989764;28;20362;-67
2023/12/10 11:34:00;;;;;;;7.63;3.80;;;19.60;53.60;;;;;;4987256;28;20647;-66
2023/12/10 11:36:25;;;;;;;8.90;3.40;;;19.60;53.70;;;;;;4990182;28;20038;-65
2023/12/10 11:38:51;;;;;;;5.60;3.13;;;19.50;53.70;;;;;;4985158;28;20105;-63
2023/12/10 11:41:16;;;;;;;5.18;3.05;;;19.50;53.80;;;;;;4993388;28;20542;-62
2023/12/10 11:43:45;;;;;;;6.20;2.70;;;19.40;54.20;;;;;;4988551;28;20034;-64
2023/12/10 11:46:21;;;;;;;6.63;3.55;;;19.40;54.10;;;;;;4987292;28;20498;-66
2023/12/10 11:48:46;;;;;;;5.93;2.80;;;19.30;54.30;;;;;;4977537;28;20047;-62
2023/12/10 11:51:12;;;;;;;6.32;2.88;;;19.20;54.20;;;;;;4991303;28;20038;-65
2023/12/10 11:53:37;;;;;;;6.10;3.03;;;19.10;54.50;;;;;;4981664;28;20559;-64
2023/12/10 11:56:03;;;;;;;13.35;6.10;;;19.10;54.40;;;;;;4978283;28;20887;-66
2023/12/10 11:58:31;;;;;;;23.30;10.18;;;19.10;54.50;;;;;;4986890;28;20176;-66
2023/12/10 12:01:01;;;;;;;27.02;11.85;;;19.20;54.80;;;;;;4983818;28;20039;-65
2023/12/10 12:03:29;;;;;;;32.00;14.27;;;19.20;55.00;;;;;;4982966;28;20558;-64
2023/12/10 12:05:55;;;;;;;40.95;18.65;;;19.30;55.80;;;;;;4982216;28;20053;-64
2023/12/10 12:08:26;;;;;;;54.55;26.15;;;19.30;55.60;;;;;;4981265;28;20489;-67
2023/12/10 12:10:51;;;;;;;52.25;27.48;;;19.30;55.80;;;;;;4980905;28;20045;-65
2023/12/10 12:13:17;;;;;;;47.08;25.23;;;19.30;55.70;;;;;;4989458;28;20042;-66
2023/12/10 12:15:46;;;;;;;43.08;23.73;;;19.10;55.60;;;;;;4990353;28;20038;-65
2023/12/10 12:18:12;;;;;;;46.45;23.90;;;19.10;55.60;;;;;;4989468;28;20055;-65
2023/12/10 12:20:38;;;;;;;44.35;22.48;;;19.00;55.70;;;;;;4988669;28;20041;-66
2023/12/10 12:23:04;;;;;;;49.05;21.77;;;19.00;55.70;;;;;;4978312;28;20034;-66
2023/12/10 12:25:34;;;;;;;33.85;19.20;;;18.90;55.60;;;;;;4980881;28;20077;-64
2023/12/10 12:28:00;;;;;;;31.48;15.88;;;18.90;55.40;;;;;;4980720;28;20034;-65
2023/12/10 12:30:26;;;;;;;25.05;13.90;;;18.90;55.50;;;;;;4982631;28;20022;-65
2023/12/10 12:32:52;;;;;;;26.30;13.40;;;18.90;56.70;;;;;;4984208;28;20034;-65
2023/12/10 12:35:17;;;;;;;26.00;13.35;;;18.90;56.40;;;;;;4958747;28;20026;-64
2023/12/10 12:37:43;;;;;;;34.13;18.58;;;18.80;56.20;;;;;;4980101;28;20034;-65